Airfield :
LOGIN :

Register | Disclaimer

   EN    FR    IT 

 










Legend :    VFR   Marginal VFR   IFR   Intensive IFR   Very Intensive IFR
Visi :
Ceiling :
>= 8 km
>= 3000ft
5 to 8 km
1000 to 3000 ft
1500m to 5 km
500 to 1000 ft
800 to 1500m
200 to 500 ft
< 800m
< 200 ft
Symbols :   Thunderstorms  Fog  Heavy snow  Heavy precipitations  Wind > 20 kt
SIGMETs :     Misc.  Thunderstorms  Icing  Turbulence  Mountain Waves  Volcanic Ashes






- Airport Elevation : 1247 ft
- IATA code : PRG


LKPR - Praha Ruzyne

CURRENT METAR :
  • 200300Z 23012KT 9999 -RA FEW015 BKN025 04/02 Q1004 NOSIG

EXPIRED METARs :
  • 200230Z 24011KT 9999 -RA FEW015 BKN030 03/02 Q1004 NOSIG
  • 200200Z 23010KT 9999 -RA FEW023 BKN046 04/02 Q1004 NOSIG
  • 200130Z 23009KT 9999 FEW030 BKN047 04/02 Q1004 NOSIG
  • 200100Z 23009KT 9999 FEW028 03/02 Q1004 NOSIG
  • 200030Z 23010KT 9999 FEW026 BKN045 03/02 Q1004 NOSIG
  • 200000Z 24010KT 9999 BKN024 03/02 Q1004 NOSIG
  • 192330Z 24011KT 9999 FEW045 03/02 Q1004 NOSIG
  • 192300Z 24012KT 9999 FEW040 03/02 Q1004 NOSIG
  • 192230Z 24011KT 9999 FEW011 03/02 Q1003 NOSIG

TAF TAF LKPR
Valid from the 20 at 03:00 until the 21 at 09:00 UTC


200200Z 2003/2109 23010KT 9999 BKN030
TEMPO 2003/2008 23008KT -RA BKN015
PROB30
TEMPO 2003/2006 6000 -RASN BKN010
BECMG 2008/2010 35015KT
TEMPO 2008/2018 7000 SHRA BKN014
PROB30
TEMPO 2010/2017 35014G26KT 4000 SHRA BKN009TCU
TEMPO 2018/2021 9999 SCT025
BECMG 2021/2023 34006KT CAVOK
BECMG 2104/2106 VRB02KT



MET'MAP, your aeronautical weather chart ! - Copyright ORBIFLY December 2007 - Disclaimer

ORBIFLY MET'MAP TEAM :

Programming & Development : Alexandra Zaïnal
Original concept : Baudouin d'Aumeries
Technical & hardware support : Manuel Goepfert
Assistance : Marc-Olivier Méhu




SOURCES & CREDITS :

   NOAA